Time;durP1;ratioP1;P1;durP2;ratioP2;P2;SDS_P1;SDS_P2;PMS_P1;PMS_P2;Temp;Humidity;BMP_temperature;BMP_pressure;BME280_temperature;BME280_humidity;BME280_pressure;Samples;Min_cycle;Max_cycle;Signal;HPM_P1;HPM_P2
2023/03/13 00:00:17;;;;;;;2.83;1.50;;;;;;;;;;5022870;28;20054;-79
2023/03/13 00:02:44;;;;;;;6.18;1.40;;;;;;;;;;5026344;28;20478;-80
2023/03/13 00:05:10;;;;;;;5.93;1.77;;;;;;;;;;5019808;28;20040;-79
2023/03/13 00:07:36;;;;;;;5.60;1.90;;;;;;;;;;5018435;28;20037;-78
2023/03/13 00:10:02;;;;;;;5.05;1.15;;;;;;;;;;5025945;28;20037;-81
2023/03/13 00:12:28;;;;;;;2.33;1.13;;;;;;;;;;5023018;28;20030;-79
2023/03/13 00:14:54;;;;;;;8.88;1.88;;;;;;;;;;5025140;28;20033;-79
2023/03/13 00:17:20;;;;;;;5.50;1.80;;;;;;;;;;5021008;28;20025;-81
2023/03/13 00:19:46;;;;;;;4.35;1.50;;;;;;;;;;5021642;28;20145;-80
2023/03/13 00:22:12;;;;;;;3.72;1.60;;;;;;;;;;5024682;28;20358;-78
2023/03/13 00:24:38;;;;;;;2.72;1.20;;;;;;;;;;5028208;28;20041;-82
2023/03/13 00:27:05;;;;;;;2.85;1.20;;;;;;;;;;5018371;28;20025;-79
2023/03/13 00:29:32;;;;;;;5.65;2.25;;;5.40;99.90;;;;;;5028229;28;20045;-80
2023/03/13 00:31:58;;;;;;;3.22;1.05;;;;;;;;;;5023185;28;20049;-82
2023/03/13 00:34:28;;;;;;;5.47;1.20;;;;;;;;;;5020893;28;20116;-79
2023/03/13 00:36:54;;;;;;;3.63;1.17;;;;;;;;;;5020567;28;20508;-78
2023/03/13 00:39:21;;;;;;;3.38;1.08;;;;;;;;;;5025373;28;20037;-79
2023/03/13 00:41:47;;;;;;;12.23;1.95;;;;;;;;;;5025629;28;20034;-79
2023/03/13 00:44:13;;;;;;;7.63;1.98;;;;;;;;;;5029625;28;20021;-79
2023/03/13 00:46:39;;;;;;;9.25;1.48;;;;;;;;;;5023042;28;20037;-78
2023/03/13 00:49:05;;;;;;;3.40;1.45;;;;;;;;;;5027331;28;20118;-77
2023/03/13 00:51:31;;;;;;;5.25;1.75;;;;;;;;;;5016747;28;20033;-78
2023/03/13 00:54:02;;;;;;;8.88;2.45;;;5.40;99.90;;;;;;5023670;28;20076;-80
2023/03/13 00:56:29;;;;;;;2.38;1.30;;;;;;;;;;5024357;28;20467;-80
2023/03/13 00:58:55;;;;;;;2.92;1.35;;;;;;;;;;5018869;28;20451;-81
2023/03/13 01:01:28;;;;;;;5.38;1.42;;;;;;;;;;5021382;28;20046;-78
2023/03/13 01:03:56;;;;;;;2.17;1.02;;;;;;;;;;5033031;28;20532;-80
2023/03/13 01:06:23;;;;;;;2.88;0.80;;;;;;;;;;5022892;28;20037;-81
2023/03/13 01:08:49;;;;;;;4.88;0.95;;;;;;;;;;5028059;28;20063;-80
2023/03/13 01:11:17;;;;;;;3.33;1.38;;;;;;;;;;5026664;28;20041;-80
2023/03/13 01:13:43;;;;;;;2.47;1.10;;;;;;;;;;5022039;28;20099;-81
2023/03/13 01:16:10;;;;;;;4.25;1.13;;;;;;;;;;5022746;28;20032;-80
2023/03/13 01:18:37;;;;;;;5.43;1.63;;;;;;;;;;5015898;28;20025;-80
2023/03/13 01:21:03;;;;;;;3.17;0.82;;;;;;;;;;5027967;28;20038;-78
2023/03/13 01:23:29;;;;;;;2.63;0.77;;;;;;;;;;5041566;28;20073;-79
2023/03/13 01:25:56;;;;;;;5.20;1.13;;;;;;;;;;5042155;28;20045;-79
2023/03/13 01:28:22;;;;;;;3.97;0.90;;;;;;;;;;5030049;28;20037;-78
2023/03/13 01:30:48;;;;;;;4.85;1.08;;;;;;;;;;5021242;28;20036;-79
2023/03/13 01:33:14;;;;;;;4.03;0.95;;;;;;;;;;5022982;28;20026;-78
2023/03/13 01:35:40;;;;;;;3.67;1.05;;;;;;;;;;5018783;28;21412;-80
2023/03/13 01:38:06;;;;;;;3.25;0.90;;;;;;;;;;5020639;28;20084;-81
2023/03/13 01:40:38;;;;;;;7.32;1.00;;;;;;;;;;5021533;28;20930;-81
2023/03/13 01:43:12;;;;;;;6.55;1.30;;;;;;;;;;5022401;28;20021;-79
2023/03/13 01:45:59;;;;;;;6.28;1.08;;;;;;;;;;5021708;28;20053;-81
2023/03/13 01:48:27;;;;;;;7.63;1.02;;;;;;;;;;5017280;28;20075;-80
2023/03/13 01:50:55;;;;;;;5.00;1.90;;;;;;;;;;5016589;28;20212;-80
2023/03/13 01:53:21;;;;;;;4.53;1.02;;;;;;;;;;5025378;28;20108;-81
2023/03/13 01:55:47;;;;;;;4.35;1.27;;;;;;;;;;5022683;28;20028;-80
2023/03/13 01:58:13;;;;;;;4.25;1.05;;;;;;;;;;5019792;28;20025;-78
2023/03/13 02:00:41;;;;;;;8.20;1.90;;;;;;;;;;5025734;28;20033;-81
2023/03/13 02:03:13;;;;;;;4.00;1.02;;;5.80;99.90;;;;;;5017331;28;20045;-78
2023/03/13 02:05:40;;;;;;;5.60;1.60;;;;;;;;;;5014924;28;20117;-80
2023/03/13 02:08:08;;;;;;;3.88;0.95;;;;;;;;;;5017523;28;20480;-78
2023/03/13 02:10:38;;;;;;;17.88;1.73;;;;;;;;;;5021701;28;22240;-78
2023/03/13 02:13:04;;;;;;;4.90;1.33;;;;;;;;;;5024421;28;20536;-79
2023/03/13 02:15:30;;;;;;;12.88;1.52;;;;;;;;;;5025000;28;20033;-80
2023/03/13 02:17:57;;;;;;;5.97;1.25;;;;;;;;;;5022722;28;20060;-80
2023/03/13 02:20:23;;;;;;;10.68;1.23;;;;;;;;;;5015462;28;20083;-80
2023/03/13 02:22:54;;;;;;;6.97;0.93;;;;;;;;;;5018589;28;20033;-79
2023/03/13 02:25:20;;;;;;;6.57;1.35;;;;;;;;;;5018692;28;20106;-81
2023/03/13 02:27:46;;;;;;;7.32;1.35;;;;;;;;;;5016108;28;20144;-80
2023/03/13 02:30:13;;;;;;;10.50;1.42;;;;;;;;;;5019217;28;20073;-78
2023/03/13 02:32:39;;;;;;;2.45;1.20;;;;;;;;;;5018654;28;20646;-78
2023/03/13 02:35:10;;;;;;;8.20;1.38;;;;;;;;;;5018852;28;20045;-81
2023/03/13 02:37:36;;;;;;;8.73;2.08;;;;;;;;;;5021148;28;20596;-79
2023/03/13 02:40:04;;;;;;;2.95;0.63;;;;;;;;;;5017695;28;20706;-81
2023/03/13 02:42:31;;;;;;;4.25;1.42;;;;;;;;;;5014973;28;20513;-79
2023/03/13 02:44:57;;;;;;;12.52;0.98;;;;;;;;;;5015826;28;20129;-79
2023/03/13 02:47:24;;;;;;;4.65;0.85;;;;;;;;;;5025676;28;20294;-79
2023/03/13 02:49:50;;;;;;;1.02;0.57;;;;;;;;;;5020304;28;20096;-78
2023/03/13 02:52:30;;;;;;;2.80;1.05;;;;;;;;;;5018638;28;20819;-78
2023/03/13 02:55:00;;;;;;;3.00;1.10;;;;;;;;;;5019183;28;20401;-79
2023/03/13 02:57:26;;;;;;;4.55;0.90;;;;;;;;;;5019044;28;20038;-80
2023/03/13 02:59:52;;;;;;;3.38;0.73;;;;;;;;;;5022116;28;20102;-81
2023/03/13 03:02:18;;;;;;;5.97;0.98;;;;;;;;;;5020188;28;20042;-80
2023/03/13 03:04:44;;;;;;;2.80;0.65;;;;;;;;;;5019555;28;20029;-80
2023/03/13 03:07:10;;;;;;;9.60;1.15;;;;;;;;;;5024419;28;21201;-80
2023/03/13 03:09:36;;;;;;;10.80;0.93;;;;;;;;;;5013573;28;20040;-80
2023/03/13 03:12:02;;;;;;;6.95;1.30;;;;;;;;;;5017775;28;20038;-80
2023/03/13 03:14:28;;;;;;;5.07;0.80;;;;;;;;;;5017520;28;20168;-80
2023/03/13 03:16:54;;;;;;;1.10;0.52;;;;;;;;;;5025255;28;20478;-80
2023/03/13 03:19:20;;;;;;;3.05;0.90;;;;;;;;;;5019664;28;20041;-80
2023/03/13 03:21:48;;;;;;;1.50;0.75;;;;;;;;;;5016435;28;20038;-81
2023/03/13 03:24:14;;;;;;;5.60;0.80;;;;;;;;;;5014521;28;20177;-79
2023/03/13 03:26:40;;;;;;;12.10;0.82;;;;;;;;;;5017898;28;20081;-80
2023/03/13 03:29:09;;;;;;;5.10;0.98;;;;;;;;;;5019966;28;20951;-78
2023/03/13 03:31:36;;;;;;;6.57;0.80;;;;;;;;;;5023834;28;20026;-83
2023/03/13 03:34:02;;;;;;;0.70;0.63;;;;;;;;;;5017604;28;20500;-79
2023/03/13 03:36:28;;;;;;;4.40;0.93;;;;;;;;;;5021695;28;20033;-82
2023/03/13 03:38:54;;;;;;;3.00;0.65;;;;;;;;;;5024082;28;20022;-81
2023/03/13 03:41:20;;;;;;;11.00;0.88;;;8.50;99.90;;;;;;5026713;28;20473;-81
2023/03/13 03:43:46;;;;;;;2.63;1.05;;;;;;;;;;5015888;28;20029;-81
2023/03/13 03:46:12;;;;;;;4.65;1.00;;;;;;;;;;5024569;28;20037;-78
2023/03/13 03:48:38;;;;;;;10.35;1.05;;;;;;;;;;5026815;28;20059;-81
2023/03/13 03:51:04;;;;;;;4.47;1.00;;;;;;;;;;5020702;28;20033;-79
2023/03/13 03:53:31;;;;;;;15.32;1.08;;;;;;;;;;5025956;28;20116;-81
2023/03/13 03:55:57;;;;;;;8.07;0.95;;;;;;;;;;5021959;28;20045;-81
2023/03/13 03:58:23;;;;;;;3.45;1.30;;;;;;;;;;5021717;28;20505;-79
2023/03/13 04:00:49;;;;;;;2.72;0.82;;;;;;;;;;5027796;28;20108;-80
2023/03/13 04:03:15;;;;;;;4.60;0.63;;;;;;;;;;5020436;28;20030;-79
2023/03/13 04:05:42;;;;;;;0.52;0.13;;;;;;;;;;5024558;28;20026;-81
2023/03/13 04:08:08;;;;;;;2.40;0.77;;;;;;;;;;5028685;28;20522;-80
2023/03/13 04:10:34;;;;;;;8.38;1.02;;;;;;;;;;5019335;28;20032;-80
2023/03/13 04:13:00;;;;;;;4.38;0.55;;;;;;;;;;5022372;28;20014;-78
2023/03/13 04:15:26;;;;;;;4.25;0.50;;;;;;;;;;5023652;28;20389;-81
2023/03/13 04:17:52;;;;;;;3.33;0.60;;;;;;;;;;5020718;28;20483;-80
2023/03/13 04:20:18;;;;;;;3.33;0.45;;;;;;;;;;5018125;28;20033;-82
2023/03/13 04:22:44;;;;;;;7.05;0.95;;;;;;;;;;5022928;28;20537;-80
2023/03/13 04:25:10;;;;;;;3.10;0.85;;;;;;;;;;5023117;28;20045;-80
2023/03/13 04:27:36;;;;;;;2.40;0.65;;;;;;;;;;5021403;28;20168;-82
2023/03/13 04:30:03;;;;;;;4.30;1.00;;;;;;;;;;5025927;28;20151;-81
2023/03/13 04:32:29;;;;;;;2.92;0.50;;;;;;;;;;5025286;28;20030;-79
2023/03/13 04:34:55;;;;;;;9.07;0.60;;;;;;;;;;5018382;28;20033;-81
2023/03/13 04:37:21;;;;;;;3.63;0.63;;;;;;;;;;5020693;28;20746;-77
2023/03/13 04:39:47;;;;;;;0.40;0.30;;;8.40;99.90;;;;;;5026931;28;20030;-81
2023/03/13 04:42:13;;;;;;;1.92;0.65;;;;;;;;;;5018181;28;20065;-81
2023/03/13 04:44:39;;;;;;;2.97;0.60;;;;;;;;;;5021199;28;20034;-79
2023/03/13 04:47:05;;;;;;;1.55;1.05;;;;;;;;;;5021498;28;20121;-78
2023/03/13 04:49:31;;;;;;;1.05;0.55;;;;;;;;;;5018706;28;20083;-80
2023/03/13 04:51:57;;;;;;;3.20;0.55;;;;;;;;;;5026154;28;20065;-79
2023/03/13 04:54:23;;;;;;;2.70;0.80;;;;;;;;;;5023908;28;20029;-80
2023/03/13 04:56:49;;;;;;;5.57;0.90;;;;;;;;;;5029753;28;20613;-82
2023/03/13 04:59:15;;;;;;;1.27;0.40;;;;;;;;;;5023420;28;20132;-80
2023/03/13 05:01:41;;;;;;;2.67;0.70;;;;;;;;;;5022844;28;20588;-79
2023/03/13 05:04:08;;;;;;;2.25;0.30;;;;;;;;;;5026525;28;20635;-79
2023/03/13 05:06:34;;;;;;;1.25;0.60;;;;;;;;;;5033621;28;20061;-80
2023/03/13 05:09:00;;;;;;;4.70;0.60;;;;;;;;;;5018857;28;20104;-80
2023/03/13 05:11:26;;;;;;;0.77;0.20;;;;;;;;;;5024040;28;20489;-79
2023/03/13 05:13:52;;;;;;;0.88;0.28;;;;;;;;;;5023958;28;20041;-80
2023/03/13 05:16:18;;;;;;;1.02;0.30;;;;;;;;;;5022416;28;20021;-81
2023/03/13 05:18:43;;;;;;;1.25;0.47;;;;;;;;;;5026568;28;20500;-80
2023/03/13 05:21:09;;;;;;;4.50;0.75;;;;;;;;;;5014676;28;20033;-78
2023/03/13 05:23:35;;;;;;;4.00;0.63;;;;;;;;;;5019727;28;20033;-79
2023/03/13 05:26:02;;;;;;;1.33;0.47;;;;;;;;;;5021707;28;20033;-79
2023/03/13 05:28:28;;;;;;;0.68;0.40;;;;;;;;;;5020064;28;20104;-78
2023/03/13 05:30:54;;;;;;;0.82;0.30;;;;;;;;;;5017123;28;20515;-78
2023/03/13 05:33:20;;;;;;;1.63;0.28;;;;;;;;;;5017828;28;20033;-82
2023/03/13 05:35:46;;;;;;;0.80;0.40;;;;;;;;;;5020993;28;20033;-80
2023/03/13 05:38:12;;;;;;;1.73;0.47;;;;;;;;;;5004352;28;20040;-78
2023/03/13 05:40:38;;;;;;;5.25;0.38;;;;;;;;;;5016194;28;20045;-78
2023/03/13 05:43:04;;;;;;;5.43;0.80;;;;;;;;;;5016381;28;20417;-80
2023/03/13 05:45:30;;;;;;;1.90;0.85;;;;;;;;;;5013119;28;20028;-81
2023/03/13 05:47:57;;;;;;;0.43;0.20;;;;;;;;;;5020382;28;20078;-81
2023/03/13 05:50:24;;;;;;;3.42;0.40;;;;;;;;;;5019949;28;20084;-80
2023/03/13 05:52:50;;;;;;;7.85;0.50;;;;;;;;;;5016770;28;20037;-80
2023/03/13 05:55:16;;;;;;;8.43;0.80;;;;;;;;;;5020407;28;20026;-79
2023/03/13 05:57:45;;;;;;;2.97;0.60;;;;;;;;;;5042230;28;20029;-77
2023/03/13 06:00:12;;;;;;;4.60;0.50;;;;;;;;;;5041628;28;20033;-77
2023/03/13 06:02:38;;;;;;;4.50;0.73;;;;;;;;;;5033917;28;20366;-79
2023/03/13 06:05:04;;;;;;;0.73;0.25;;;;;;;;;;5020007;28;20036;-77
2023/03/13 06:07:30;;;;;;;0.50;0.20;;;;;;;;;;5019265;28;20074;-77
2023/03/13 06:09:56;;;;;;;2.95;0.30;;;9.30;99.90;;;;;;5023456;28;20065;-78
2023/03/13 06:12:22;;;;;;;2.53;0.45;;;;;;;;;;5019180;28;20033;-78
2023/03/13 06:14:48;;;;;;;2.75;1.65;;;;;;;;;;5004514;28;20637;-78
2023/03/13 06:17:14;;;;;;;15.02;4.53;;;;;;;;;;5007944;28;20589;-80
2023/03/13 06:19:40;;;;;;;3.90;1.35;;;;;;;;;;5018945;28;20164;-81
2023/03/13 06:22:06;;;;;;;1.77;0.60;;;;;;;;;;5008551;28;20501;-80
2023/03/13 06:24:32;;;;;;;5.05;0.30;;;;;;;;;;5020185;28;20033;-80
2023/03/13 06:26:58;;;;;;;1.23;0.40;;;;;;;;;;5016165;28;20516;-81
2023/03/13 06:29:24;;;;;;;0.60;0.60;;;;;;;;;;5026431;28;20087;-78
2023/03/13 06:31:50;;;;;;;5.82;0.98;;;;;;;;;;5016586;28;20096;-80
2023/03/13 06:34:16;;;;;;;3.13;0.45;;;9.80;99.90;;;;;;5021255;28;20068;-78
2023/03/13 06:36:42;;;;;;;6.10;0.93;;;;;;;;;;5013567;28;20477;-80
2023/03/13 06:39:09;;;;;;;5.07;0.60;;;;;;;;;;5020212;28;20037;-80
2023/03/13 06:41:35;;;;;;;2.15;0.60;;;;;;;;;;5014360;28;20037;-80
2023/03/13 06:44:01;;;;;;;2.60;0.70;;;9.90;99.90;;;;;;5022176;28;20028;-78
2023/03/13 06:46:26;;;;;;;0.98;0.57;;;9.10;99.90;;;;;;5026385;28;20026;-79
2023/03/13 06:48:52;;;;;;;1.35;0.35;;;;;;;;;;5025912;28;20401;-77
2023/03/13 06:51:20;;;;;;;1.55;0.60;;;9.00;99.90;;;;;;5026859;28;20243;-78
2023/03/13 06:53:46;;;;;;;2.00;0.32;;;;;;;;;;5028559;28;20758;-81
2023/03/13 06:56:12;;;;;;;0.75;0.32;;;;;;;;;;5016982;28;20568;-81
2023/03/13 06:58:38;;;;;;;3.00;0.30;;;;;;;;;;5016460;28;20057;-79
2023/03/13 07:01:11;;;;;;;1.67;0.20;;;;;;;;;;5023783;28;20021;-81
2023/03/13 07:03:38;;;;;;;1.20;0.50;;;;;;;;;;5024935;28;20025;-78
2023/03/13 07:06:04;;;;;;;0.55;0.32;;;10.50;99.90;;;;;;5026591;28;20085;-80
2023/03/13 07:08:31;;;;;;;1.13;0.32;;;10.40;99.90;;;;;;5034591;28;20064;-78
2023/03/13 07:10:59;;;;;;;0.20;0.13;;;10.40;99.90;;;;;;5018648;28;20022;-80
2023/03/13 07:13:25;;;;;;;1.25;0.20;;;;;;;;;;5029022;28;20029;-78
2023/03/13 07:15:52;;;;;;;0.30;0.20;;;;;;;;;;5018531;28;20473;-79
2023/03/13 07:18:18;;;;;;;0.63;0.30;;;;;;;;;;5027346;28;20144;-78
2023/03/13 07:20:44;;;;;;;1.98;0.22;;;;;;;;;;5015924;28;20133;-77
2023/03/13 07:23:10;;;;;;;0.20;0.10;;;;;;;;;;5018540;28;20022;-80
2023/03/13 07:25:35;;;;;;;0.52;0.20;;;10.70;99.90;;;;;;5020938;28;20030;-79
2023/03/13 07:28:01;;;;;;;1.88;0.80;;;;;;;;;;5025042;28;20021;-80
2023/03/13 07:30:27;;;;;;;3.03;0.28;;;;;;;;;;5024148;28;20038;-78
2023/03/13 07:32:53;;;;;;;1.08;0.20;;;;;;;;;;5024123;28;20030;-78
2023/03/13 07:35:19;;;;;;;1.83;0.20;;;;;;;;;;5018059;28;20397;-79
2023/03/13 07:37:45;;;;;;;0.88;0.30;;;;;;;;;;5031021;28;20045;-78
2023/03/13 07:40:12;;;;;;;0.30;0.10;;;;;;;;;;5019987;28;20034;-80
2023/03/13 07:42:41;;;;;;;2.50;0.10;;;;;;;;;;5019121;28;20021;-77
2023/03/13 07:45:08;;;;;;;0.13;0.13;;;;;;;;;;5025274;28;20029;-78
2023/03/13 07:47:34;;;;;;;5.60;2.10;;;;;;;;;;5023707;28;20022;-78
2023/03/13 07:50:00;;;;;;;4.85;1.35;;;;;;;;;;5022809;28;20037;-77
2023/03/13 07:52:26;;;;;;;4.15;1.23;;;;;;;;;;5017647;28;20021;-78
2023/03/13 07:54:53;;;;;;;4.57;1.77;;;;;;;;;;5024499;28;20033;-79
2023/03/13 07:57:19;;;;;;;3.70;0.38;;;;;;;;;;5022142;28;20039;-78
2023/03/13 07:59:44;;;;;;;0.43;0.20;;;;;;;;;;5015181;28;20248;-78
2023/03/13 08:02:12;;;;;;;1.02;0.30;;;11.50;99.90;;;;;;5014440;28;20405;-78
2023/03/13 08:04:38;;;;;;;1.75;0.20;;;;;;;;;;5019340;28;20545;-77
2023/03/13 08:07:08;;;;;;;2.90;0.20;;;11.60;99.90;;;;;;5026142;28;20034;-78
2023/03/13 08:09:33;;;;;;;0.43;0.20;;;12.10;99.90;;;;;;5017085;28;20497;-79
2023/03/13 08:11:59;;;;;;;0.30;0.10;;;;;;;;;;5016269;28;20095;-78
2023/03/13 08:14:25;;;;;;;1.02;0.10;;;;;;;;;;5022887;28;20068;-79
2023/03/13 08:16:51;;;;;;;0.35;0.20;;;13.10;99.90;;;;;;5014468;28;20034;-79
2023/03/13 08:19:17;;;;;;;0.52;0.20;;;;;;;;;;5018403;28;20436;-79
2023/03/13 08:21:42;;;;;;;0.45;0.10;;;;;;;;;;5024230;28;20025;-78
2023/03/13 08:24:10;;;;;;;0.17;0.10;;;;;;;;;;5026549;28;20033;-77
2023/03/13 08:26:37;;;;;;;0.03;0.00;;;12.90;99.90;;;;;;5018181;28;20647;-79
2023/03/13 08:29:05;;;;;;;0.10;0.10;;;;;;;;;;5029877;28;20508;-79
2023/03/13 08:31:35;;;;;;;0.40;0.10;;;;;;;;;;5026334;28;20536;-78
2023/03/13 08:34:01;;;;;;;0.52;0.10;;;13.50;99.90;;;;;;5021506;28;20050;-79
2023/03/13 08:36:32;;;;;;;0.20;0.10;;;;;;;;;;5029736;28;20021;-78
2023/03/13 08:38:59;;;;;;;0.08;0.05;;;;;;;;;;5030409;28;20033;-80
2023/03/13 08:41:27;;;;;;;0.17;0.10;;;;;;;;;;5023322;28;20034;-79
2023/03/13 08:43:54;;;;;;;0.43;0.10;;;;;;;;;;5031813;28;20477;-79
2023/03/13 08:46:20;;;;;;;0.25;0.10;;;;;;;;;;5030969;28;20140;-79
2023/03/13 08:48:52;;;;;;;0.10;0.10;;;;;;;;;;5027196;28;20489;-78
2023/03/13 08:51:19;;;;;;;0.10;0.00;;;15.10;99.90;;;;;;5027058;28;20060;-77
2023/03/13 08:53:46;;;;;;;0.52;0.00;;;;;;;;;;5027778;28;20026;-80
2023/03/13 08:56:13;;;;;;;0.20;0.00;;;;;;;;;;5020458;28;20030;-79
2023/03/13 08:58:39;;;;;;;0.15;0.10;;;14.10;99.90;;;;;;5028878;28;20083;-80
2023/03/13 09:01:08;;;;;;;0.70;0.30;;;13.80;99.90;;;;;;5029674;28;20037;-80
2023/03/13 09:03:34;;;;;;;0.40;0.10;;;;;;;;;;5027435;28;20044;-80
2023/03/13 09:06:00;;;;;;;1.02;0.20;;;;;;;;;;5019997;28;20022;-78
2023/03/13 09:08:26;;;;;;;0.10;0.10;;;;;;;;;;5023582;28;20065;-77
2023/03/13 09:11:05;;;;;;;0.40;0.10;;;14.20;99.90;;;;;;5027987;28;20029;-78
2023/03/13 09:13:33;;;;;;;0.47;0.20;;;;;;;;;;5035052;28;20438;-79
2023/03/13 09:16:00;;;;;;;0.30;0.10;;;;;;;;;;5031330;28;20068;-78
2023/03/13 09:18:26;;;;;;;0.40;0.10;;;13.70;99.90;;;;;;5030948;28;20515;-78
2023/03/13 09:20:52;;;;;;;0.20;0.10;;;14.00;99.90;;;;;;5023429;28;20026;-80
2023/03/13 09:23:18;;;;;;;0.10;0.10;;;;;;;;;;5028369;28;20539;-79
2023/03/13 09:25:44;;;;;;;0.22;0.10;;;;;;;;;;5032576;28;20026;-78
2023/03/13 09:28:10;;;;;;;0.03;0.00;;;;;;;;;;5021465;28;20057;-78
2023/03/13 09:30:36;;;;;;;0.40;0.10;;;;;;;;;;5027108;28;20509;-78
2023/03/13 09:33:02;;;;;;;0.00;0.00;;;;;;;;;;5024381;28;20551;-78
2023/03/13 09:35:28;;;;;;;0.20;0.10;;;;;;;;;;5026907;28;20018;-79
2023/03/13 09:37:54;;;;;;;1.38;0.30;;;;;;;;;;5028199;28;20030;-78
2023/03/13 09:40:22;;;;;;;0.75;0.25;;;13.50;99.90;;;;;;5022614;28;20118;-79
2023/03/13 09:43:11;;;;;;;1.25;0.13;;;;;;;;;;5019280;28;20029;-77
2023/03/13 09:45:41;;;;;;;0.60;0.10;;;14.20;99.90;;;;;;5010098;28;20033;-78
2023/03/13 09:48:32;;;;;;;2.53;0.20;;;13.60;99.90;;;;;;5018855;28;20025;-78
2023/03/13 09:51:12;;;;;;;0.32;0.10;;;13.60;99.90;;;;;;5026463;28;20045;-78
2023/03/13 09:53:47;;;;;;;0.40;0.30;;;13.60;99.90;;;;;;5024495;28;20076;-78
2023/03/13 09:56:15;;;;;;;0.55;0.22;;;;;;;;;;5021244;28;20033;-80
2023/03/13 09:58:48;;;;;;;1.13;0.20;;;13.50;99.90;;;;;;5018490;28;20033;-78
2023/03/13 10:01:16;;;;;;;0.47;0.20;;;13.50;99.90;;;;;;5024502;28;20041;-78
2023/03/13 10:03:48;;;;;;;4.65;0.68;;;;;;;;;;5022594;28;20512;-78
2023/03/13 10:06:18;;;;;;;0.77;0.40;;;13.60;99.90;;;;;;5023680;28;20056;-80
2023/03/13 10:08:44;;;;;;;1.00;0.22;;;;;;;;;;5023653;28;20061;-79
2023/03/13 10:11:22;;;;;;;0.20;0.10;;;;;;;;;;5026324;28;20041;-79
2023/03/13 10:13:50;;;;;;;1.48;0.45;;;;;;;;;;5017003;28;20034;-79
2023/03/13 10:16:38;;;;;;;0.60;0.38;;;;;;;;;;5021270;28;20124;-80
2023/03/13 10:19:25;;;;;;;0.20;0.10;;;14.00;99.90;;;;;;5022724;28;20068;-78
2023/03/13 10:21:53;;;;;;;0.63;0.28;;;14.30;99.90;;;;;;5029458;28;20124;-80
2023/03/13 10:24:21;;;;;;;0.68;0.40;;;14.80;99.90;;;;;;5025633;28;20037;-79
2023/03/13 10:26:47;;;;;;;1.20;0.20;;;;;;;;;;5029269;28;20092;-80
2023/03/13 10:29:21;;;;;;;0.57;0.25;;;15.30;99.90;;;;;;5025245;28;20417;-79
2023/03/13 10:31:56;;;;;;;0.98;0.25;;;;;;;;;;5022807;28;20032;-80
2023/03/13 10:34:23;;;;;;;1.02;0.20;;;15.90;99.90;;;;;;5024248;28;20037;-79
2023/03/13 10:36:55;;;;;;;1.67;0.40;;;16.00;99.90;;;;;;5033160;28;20464;-77
2023/03/13 10:39:23;;;;;;;1.65;0.40;;;16.00;99.90;;;;;;5036902;28;20497;-78
2023/03/13 10:41:50;;;;;;;5.57;0.30;;;16.00;99.90;;;;;;5028434;28;20022;-78
2023/03/13 10:44:18;;;;;;;0.90;0.30;;;;;;;;;;5029678;28;20564;-80
2023/03/13 10:46:46;;;;;;;2.15;0.40;;;16.00;99.90;;;;;;5027914;28;20033;-78
2023/03/13 10:49:20;;;;;;;0.98;0.32;;;16.10;99.90;;;;;;5022396;28;20676;-79
2023/03/13 10:51:49;;;;;;;0.52;0.22;;;15.90;99.90;;;;;;5024541;28;20108;-79
2023/03/13 10:54:21;;;;;;;1.65;0.70;;;15.90;99.90;;;;;;5028064;28;20018;-78
2023/03/13 10:56:48;;;;;;;6.30;0.52;;;15.40;99.90;;;;;;5020804;28;20485;-78
2023/03/13 10:59:25;;;;;;;0.30;0.20;;;15.10;99.90;;;;;;5014092;28;20066;-80
2023/03/13 11:01:52;;;;;;;0.60;0.38;;;;;;;;;;5026672;28;20033;-79
2023/03/13 11:04:38;;;;;;;1.65;0.32;;;14.70;99.90;;;;;;5018228;28;20025;-79
2023/03/13 11:07:13;;;;;;;0.63;0.30;;;15.40;99.90;;;;;;5019523;28;20052;-79
2023/03/13 11:09:39;;;;;;;1.00;0.88;;;;;;;;;;5016237;28;20041;-79
2023/03/13 11:12:12;;;;;;;0.63;0.40;;;14.60;99.90;;;;;;5023791;28;20043;-79
2023/03/13 11:14:39;;;;;;;1.58;0.50;;;;;;;;;;5026930;28;20029;-78
2023/03/13 11:17:19;;;;;;;1.35;0.63;;;;;;;;;;5024486;28;20026;-78
2023/03/13 11:20:08;;;;;;;1.60;0.47;;;;;;;;;;5030044;28;20482;-78
2023/03/13 11:22:43;;;;;;;2.08;0.73;;;16.10;99.90;;;;;;5021859;28;20037;-79
2023/03/13 11:25:21;;;;;;;0.98;0.47;;;16.40;99.90;;;;;;5020591;28;20073;-79
2023/03/13 11:27:46;;;;;;;1.90;0.95;;;;;;;;;;5027611;28;20881;-80
2023/03/13 11:30:22;;;;;;;1.15;0.38;;;16.60;99.90;;;;;;5024001;28;20045;-80
2023/03/13 11:32:55;;;;;;;0.70;0.40;;;17.00;99.90;;;;;;5026431;28;20082;-79
2023/03/13 11:35:44;;;;;;;2.47;0.75;;;17.50;99.90;;;;;;5027142;28;20030;-81
2023/03/13 11:38:31;;;;;;;0.70;0.43;;;17.00;99.90;;;;;;5027404;28;20064;-81
2023/03/13 11:41:16;;;;;;;1.63;0.60;;;17.10;99.90;;;;;;5019055;28;20091;-80
2023/03/13 11:43:44;;;;;;;0.68;0.40;;;;;;;;;;5021824;28;20030;-79
2023/03/13 11:46:31;;;;;;;1.45;0.40;;;17.50;99.90;;;;;;5020065;28;20084;-80
2023/03/13 11:49:18;;;;;;;8.63;0.65;;;;;;;;;;5024650;28;20033;-80
2023/03/13 11:51:43;;;;;;;1.30;0.40;;;;;;;;;;5019222;28;20029;-79
2023/03/13 11:54:49;;;;;;;3.17;0.45;;;17.30;99.90;;;;;;5018842;28;20018;-80
2023/03/13 11:57:24;;;;;;;1.35;0.43;;;17.30;99.90;;;;;;5019800;28;20045;-80
2023/03/13 12:00:13;;;;;;;0.60;0.38;;;17.90;99.90;;;;;;5023700;28;20022;-82
2023/03/13 12:02:41;;;;;;;0.40;0.30;;;;;;;;;;5031330;28;20025;-81
2023/03/13 12:05:11;;;;;;;0.82;0.70;;;17.20;99.90;;;;;;5026273;28;20091;-81
2023/03/13 12:08:00;;;;;;;0.90;0.40;;;17.60;99.90;;;;;;5030662;28;20034;-79
2023/03/13 12:10:36;;;;;;;2.95;0.68;;;17.30;99.90;;;;;;5026682;28;20116;-78
2023/03/13 12:13:27;;;;;;;0.75;0.50;;;;;;;;;;5017423;28;20033;-77
2023/03/13 12:15:56;;;;;;;1.35;0.35;;;17.90;99.90;;;;;;5027861;28;20021;-79
2023/03/13 12:18:42;;;;;;;3.08;0.40;;;17.40;99.90;;;;;;5028351;28;20056;-81
2023/03/13 12:21:08;;;;;;;6.72;0.95;;;;;;;;;;5025065;28;20026;-78
2023/03/13 12:23:45;;;;;;;0.68;0.32;;;17.40;99.90;;;;;;5025924;28;20032;-81
2023/03/13 12:26:19;;;;;;;3.00;1.13;;;;;;;;;;5028784;28;20026;-80
2023/03/13 12:29:18;;;;;;;1.08;0.50;;;17.20;99.90;;;;;;5027009;28;20551;-82
2023/03/13 12:31:53;;;;;;;5.72;1.08;;;17.50;99.90;;;;;;5028069;28;20053;-83
2023/03/13 12:34:34;;;;;;;6.38;0.93;;;18.00;99.90;;;;;;5024231;28;20041;-83
2023/03/13 12:37:09;;;;;;;1.58;0.80;;;21.50;99.90;;;;;;5028328;28;20047;-81
2023/03/13 12:39:55;;;;;;;2.55;0.90;;;19.20;99.90;;;;;;5034812;28;20034;-81
2023/03/13 12:42:43;;;;;;;4.15;1.65;;;18.80;99.90;;;;;;5028929;28;20508;-80
2023/03/13 12:45:15;;;;;;;4.28;0.82;;;19.50;99.90;;;;;;5029278;28;20231;-85
2023/03/13 12:48:19;;;;;;;0.35;0.22;;;18.90;99.90;;;;;;5014973;28;20725;-81
2023/03/13 12:50:53;;;;;;;6.72;1.10;;;18.50;99.90;;;;;;5030175;28;20034;-80
2023/03/13 12:53:41;;;;;;;3.33;1.00;;;18.80;99.90;;;;;;5040393;28;20033;-82
2023/03/13 12:56:43;;;;;;;1.05;0.65;;;18.60;99.90;;;;;;5030748;28;20029;-82
2023/03/13 12:59:34;;;;;;;2.80;0.57;;;18.10;99.90;;;;;;5020598;28;20034;-79
2023/03/13 13:02:02;;;;;;;2.08;0.77;;;;;;;;;;5028552;28;20084;-79
2023/03/13 13:04:31;;;;;;;4.43;1.20;;;18.70;99.90;;;;;;5027023;28;20033;-82
2023/03/13 13:07:18;;;;;;;2.83;1.05;;;;;;;;;;5024407;28;20030;-79
2023/03/13 13:10:01;;;;;;;1.65;0.60;;;18.80;99.90;;;;;;5019608;28;20038;-80
2023/03/13 13:12:27;;;;;;;2.25;0.60;;;18.60;99.90;;;;;;5026757;28;20028;-80
2023/03/13 13:14:56;;;;;;;1.83;0.57;;;;;;;;;;5022683;28;20026;-81
2023/03/13 13:17:34;;;;;;;3.75;0.95;;;17.80;99.90;;;;;;5024874;28;20030;-80
2023/03/13 13:20:20;;;;;;;1.77;0.65;;;;;;;;;;5021578;28;20485;-81
2023/03/13 13:22:47;;;;;;;2.00;0.50;;;17.90;99.90;;;;;;5026436;28;20025;-79
2023/03/13 13:25:13;;;;;;;0.35;0.30;;;18.50;99.90;;;;;;5020038;28;20626;-81
2023/03/13 13:27:39;;;;;;;0.20;0.20;;;;;;;;;;5024912;28;20488;-79
2023/03/13 13:30:24;;;;;;;3.85;0.40;;;18.10;99.90;;;;;;5015327;28;20033;-81
2023/03/13 13:32:51;;;;;;;0.88;0.43;;;;;;;;;;5022317;28;20497;-82
2023/03/13 13:35:31;;;;;;;0.65;0.38;;;18.90;99.90;;;;;;5026800;28;20033;-79
2023/03/13 13:38:19;;;;;;;0.73;0.30;;;18.80;99.90;;;;;;5028885;28;20029;-82
2023/03/13 13:41:04;;;;;;;0.32;0.30;;;18.80;99.90;;;;;;5026175;28;20458;-81
2023/03/13 13:43:38;;;;;;;1.40;0.50;;;19.60;99.90;;;;;;5025581;28;20030;-83
2023/03/13 13:46:26;;;;;;;1.08;0.60;;;;;;;;;;5026592;28;20076;-79
2023/03/13 13:49:04;;;;;;;1.00;0.50;;;19.40;99.90;;;;;;5024845;28;20567;-82
2023/03/13 13:51:31;;;;;;;1.23;0.38;;;19.80;99.90;;;;;;5032310;28;20040;-81
2023/03/13 13:54:02;;;;;;;0.77;0.40;;;19.40;99.90;;;;;;5027429;28;20506;-81
2023/03/13 13:56:28;;;;;;;0.98;0.50;;;;;;;;;;5025044;28;20029;-80
2023/03/13 13:59:24;;;;;;;1.30;0.47;;;19.10;99.90;;;;;;5021448;28;20056;-82
2023/03/13 14:02:14;;;;;;;1.98;0.85;;;19.40;99.90;;;;;;5018199;28;20263;-81
2023/03/13 14:04:58;;;;;;;0.43;0.20;;;19.30;99.90;;;;;;5028419;28;20037;-81
2023/03/13 14:07:40;;;;;;;0.82;0.40;;;18.40;99.90;;;;;;5021340;28;20413;-81
2023/03/13 14:10:17;;;;;;;1.25;0.50;;;;;;;;;;5017485;28;20034;-80
2023/03/13 14:12:57;;;;;;;0.45;0.20;;;19.80;99.90;;;;;;5016534;28;20029;-79
2023/03/13 14:15:28;;;;;;;4.18;0.57;;;19.60;99.90;;;;;;5019310;28;20543;-80
2023/03/13 14:17:56;;;;;;;0.70;0.30;;;19.20;99.90;;;;;;5022631;28;20033;-81
2023/03/13 14:20:21;;;;;;;2.35;0.30;;;;;;;;;;5021735;28;20037;-81